Fykan — LLDJ — position and weather

sailwx.info

Track history (hours):
 
Tides and Currents Weather Stations Pressure Air Temp Water Temp Dewpoint Dewpoint Depression Visibility Wind Speed Wind Dir Waves Ship Positions

Fykan

Last reported at 2015-Jul-04 10:31 UTC. Time now 2015-Jul-04 15:20 UTC.
Position N 66°34' E 012°47'.

Length 52 m; draft 3.3 m.

Type: Ship. MMSI: 259681000.

Date/timePositionNaut miles runAvg speedWind from/ knotsBaromVisibWave heightAir tempDewpointWater temp
2015-Jul-04 10:31N 66°34' E 012°47'5 5.3
2015-Jul-04 09:33N 66°36' E 012°59'0 0.1
2015-Jul-04 06:24N 66°36' E 012°59'5 5.5
2015-Jul-04 05:31N 66°34' E 012°48'2 0.2
2015-Jul-03 20:27N 66°34' E 012°53'0 0.0
2015-Jul-03 16:32N 66°34' E 012°54'1 0.2
2015-Jul-03 10:33N 66°34' E 012°50'4 0.8
2015-Jul-03 05:18N 66°36' E 012°59'5 5.7
2015-Jul-03 04:27N 66°34' E 012°48'0 0.0
2015-Jul-02 18:32N 66°34' E 012°49'5 1.1
2015-Jul-02 14:27N 66°36' E 012°59'5 5.7
2015-Jul-02 13:33N 66°34' E 012°47'1 0.3
2015-Jul-02 11:07N 66°35' E 012°46'5 6.4
2015-Jul-02 10:20N 66°34' E 012°58'2 0.5
2015-Jul-02 06:23N 66°36' E 012°59'5 5.4
2015-Jul-02 05:30N 66°34' E 012°49'5 0.3
2015-Jul-01 14:27N 66°36' E 012°59'5 5.8
2015-Jul-01 13:33N 66°34' E 012°47'0 0.1
2015-Jul-01 10:30N 66°34' E 012°48'5 1.2
2015-Jul-01 06:19N 66°36' E 012°59'4 5.3
2015-Jul-01 05:32N 66°34' E 012°50'4 0.5
2015-Jun-30 21:06N 66°36' E 012°42'7 8.0
2015-Jun-30 20:15N 66°35' E 012°59'4 0.9
2015-Jun-30 16:16N 66°34' E 012°50'4 0.6
2015-Jun-30 10:14N 66°35' E 012°59'1 0.2
2015-Jun-30 05:20N 66°36' E 012°59'4 5.4
2015-Jun-30 04:33N 66°34' E 012°50'1 0.1
2015-Jun-29 18:13N 66°34' E 012°49'4 6.1
2015-Jun-29 17:32N 66°35' E 012°59'1 0.4
2015-Jun-29 14:32N 66°36' E 012°59'5 5.3
2015-Jun-29 13:33N 66°34' E 012°47'5 1.4
2015-Jun-29 10:09N 66°35' E 012°59'1 0.3
2015-Jun-29 06:20N 66°36' E 012°59'4 5.2
2015-Jun-29 05:32N 66°34' E 012°50'1 0.1
2015-Jun-28 21:04N 66°34' E 012°48'5 0.9
2015-Jun-28 15:15N 66°36' E 012°59'4 5.8
2015-Jun-28 14:32N 66°34' E 012°50'4 0.1
2015-Jun-27 09:31N 66°36' E 012°59'0 0.1
2015-Jun-27 06:20N 66°36' E 012°59'5 5.3
2015-Jun-27 05:27N 66°34' E 012°48'5 0.4
2015-Jun-26 17:04N 66°36' E 012°59'5 5.6
2015-Jun-26 16:13N 66°34' E 012°49'2 0.4
2015-Jun-26 10:27N 66°34' E 012°54'3 0.6
2015-Jun-26 05:18N 66°36' E 012°59'5 5.5
2015-Jun-26 04:25N 66°34' E 012°48'5 0.3
2015-Jun-25 14:25N 66°36' E 012°59'5 6.0
2015-Jun-25 13:33N 66°34' E 012°47'5 0.7
2015-Jun-25 06:21N 66°36' E 012°59'5 5.3
2015-Jun-25 05:27N 66°34' E 012°48'3 0.4
2015-Jun-24 21:10N 66°36' E 012°41'5 7.3
2015-Jun-24 20:28N 66°34' E 012°54'3 0.5
2015-Jun-24 14:25N 66°36' E 012°59'6 6.0
2015-Jun-24 13:26N 66°35' E 012°45'  
Track history (hours):
 
Tides and Currents Weather Stations Pressure Air Temp Water Temp Dewpoint Dewpoint Depression Visibility Wind Speed Wind Dir Waves Ship Positions

Fykan

Last reported at 2015-Jul-04 10:31 UTC. Time now 2015-Jul-04 15:20 UTC.
Position N 66°34' E 012°47'.

Length 52 m; draft 3.3 m.

Type: Ship. MMSI: 259681000.

Date/timePositionNaut miles runAvg speedWind from/ knotsBaromVisibWave heightAir tempDewpointWater temp
2015-Jul-04 10:31N 66°34' E 012°47'5 5.3
2015-Jul-04 09:33N 66°36' E 012°59'0 0.1
2015-Jul-04 06:24N 66°36' E 012°59'5 5.5
2015-Jul-04 05:31N 66°34' E 012°48'2 0.2
2015-Jul-03 20:27N 66°34' E 012°53'0 0.0
2015-Jul-03 16:32N 66°34' E 012°54'1 0.2
2015-Jul-03 10:33N 66°34' E 012°50'4 0.8
2015-Jul-03 05:18N 66°36' E 012°59'5 5.7
2015-Jul-03 04:27N 66°34' E 012°48'0 0.0
2015-Jul-02 18:32N 66°34' E 012°49'5 1.1
2015-Jul-02 14:27N 66°36' E 012°59'5 5.7
2015-Jul-02 13:33N 66°34' E 012°47'1 0.3
2015-Jul-02 11:07N 66°35' E 012°46'5 6.4
2015-Jul-02 10:20N 66°34' E 012°58'2 0.5
2015-Jul-02 06:23N 66°36' E 012°59'5 5.4
2015-Jul-02 05:30N 66°34' E 012°49'5 0.3
2015-Jul-01 14:27N 66°36' E 012°59'5 5.8
2015-Jul-01 13:33N 66°34' E 012°47'0 0.1
2015-Jul-01 10:30N 66°34' E 012°48'5 1.2
2015-Jul-01 06:19N 66°36' E 012°59'4 5.3
2015-Jul-01 05:32N 66°34' E 012°50'4 0.5
2015-Jun-30 21:06N 66°36' E 012°42'7 8.0
2015-Jun-30 20:15N 66°35' E 012°59'4 0.9
2015-Jun-30 16:16N 66°34' E 012°50'4 0.6
2015-Jun-30 10:14N 66°35' E 012°59'1 0.2
2015-Jun-30 05:20N 66°36' E 012°59'4 5.4
2015-Jun-30 04:33N 66°34' E 012°50'1 0.1
2015-Jun-29 18:13N 66°34' E 012°49'4 6.1
2015-Jun-29 17:32N 66°35' E 012°59'1 0.4
2015-Jun-29 14:32N 66°36' E 012°59'5 5.3
2015-Jun-29 13:33N 66°34' E 012°47'5 1.4
2015-Jun-29 10:09N 66°35' E 012°59'1 0.3
2015-Jun-29 06:20N 66°36' E 012°59'4 5.2
2015-Jun-29 05:32N 66°34' E 012°50'1 0.1
2015-Jun-28 21:04N 66°34' E 012°48'5 0.9
2015-Jun-28 15:15N 66°36' E 012°59'4 5.8
2015-Jun-28 14:32N 66°34' E 012°50'4 0.1
2015-Jun-27 09:31N 66°36' E 012°59'0 0.1
2015-Jun-27 06:20N 66°36' E 012°59'5 5.3
2015-Jun-27 05:27N 66°34' E 012°48'5 0.4
2015-Jun-26 17:04N 66°36' E 012°59'5 5.6
2015-Jun-26 16:13N 66°34' E 012°49'2 0.4
2015-Jun-26 10:27N 66°34' E 012°54'3 0.6
2015-Jun-26 05:18N 66°36' E 012°59'5 5.5
2015-Jun-26 04:25N 66°34' E 012°48'5 0.3
2015-Jun-25 14:25N 66°36' E 012°59'5 6.0
2015-Jun-25 13:33N 66°34' E 012°47'5 0.7
2015-Jun-25 06:21N 66°36' E 012°59'5 5.3
2015-Jun-25 05:27N 66°34' E 012°48'3 0.4
2015-Jun-24 21:10N 66°36' E 012°41'5 7.3
2015-Jun-24 20:28N 66°34' E 012°54'3 0.5
2015-Jun-24 14:25N 66°36' E 012°59'6 6.0
2015-Jun-24 13:26N 66°35' E 012°45'  

Dump ship's entire track history